• Join FlightAware (Why Join?)
  • Login
  • US Flag 
09:01PM EDT


 

Airport Tracker/Info


-or-


 

Live Flight TrackerFlight Track Log ✈ UAL978 ✈ 31-Oct-2013 ✈ SBGR / GRU - KIAH

Flight Track Log - Related Links

Times and Time Zones

All times are in EDT time to prevent confusion due to time zone crossing. See the UAL978 flight status page for this flight to view local times or setup timezone preferences in your user account.

Time Position Orientation Groundspeed Altitude Reporting Facility
EDT Latitude Longitude Course Direction KTS MPH feet Rate Location/Type
09:05PM -23.4210 -46.4250 94° East 182 209 3,900  Level FlightAware
09:05PM -23.4300 -46.4070 119° Southeast 189 217 4,700 2,160 Climbing FlightAware
09:05PM -23.4450 -46.4020 163° South 206 237 5,200 1,980 Climbing FlightAware
09:06PM -23.4730 -46.4320 224° Southwest 230 265 6,600 1,980 Climbing FlightAware
09:07PM -23.4870 -46.4600 241° Southwest 228 262 7,500 1,680 Climbing FlightAware
09:07PM -23.5040 -46.4870 236° Southwest 248 285 8,200 1,560 Climbing FlightAware
09:07PM -23.5220 -46.5120 232° Southwest 266 306 8,900 1,800 Climbing FlightAware
09:08PM -23.5450 -46.5420 230° Southwest 280 322 9,800 1,440 Climbing FlightAware
09:09PM -23.5990 -46.6150 231° Southwest 335 386 11,100 1,260 Climbing FlightAware
09:09PM -23.6190 -46.6500 238° Southwest 362 417 11,600 1,260 Climbing FlightAware
09:10PM -23.6220 -46.6770 263° West 379 436 11,900 1,560 Climbing FlightAware
09:10PM -23.6150 -46.7350 277° West 395 455 12,800 2,160 Climbing FlightAware
09:11PM -23.5960 -46.8450 281° West 407 468 15,000 2,400 Climbing FlightAware
09:12PM -23.5770 -46.9590 280° West 409 471 17,300 2,220 Climbing FlightAware
09:13PM -23.5580 -47.0750 280° West 418 481 19,200 1,920 Climbing FlightAware
09:14PM -23.5440 -47.1580 280° West 425 489 20,400 1,680 Climbing FlightAware
09:14PM -23.5250 -47.2680 281° West 435 501 21,800 1,620 Climbing FlightAware
09:15PM -23.5020 -47.3770 283° West 445 512 23,200 1,560 Climbing FlightAware
09:16PM -23.4730 -47.4300 301° West 451 519 23,900 1,380 Climbing FlightAware
09:16PM -23.4120 -47.5200 306° West 461 531 25,000 1,320 Climbing FlightAware
09:17PM -23.3680 -47.5830 307° West 465 535 25,800 900 Climbing FlightAware
09:18PM -23.3290 -47.6400 307° West 472 543 26,000 120 Climbing FlightAware
09:18PM -23.2780 -47.7150 307° West 471 542 26,000  Level FlightAware
09:19PM -23.2250 -47.7920 307° West 470 541 26,000 60 Level FlightAware
09:20PM -23.1730 -47.8670 307° West 472 543 26,100 780 Climbing FlightAware
09:20PM -23.1000 -47.9730 307° West 477 549 27,300 1,440 Climbing FlightAware
09:21PM -23.0320 -48.0630 309° West 475 547 28,600 1,380 Climbing FlightAware
09:22PM -22.9530 -48.1640 310° West 480 552 29,700 1,260 Climbing FlightAware
09:23PM -22.8860 -48.2500 310° West 478 550 30,800 1,440 Climbing FlightAware
09:24PM -22.8400 -48.3090 310° West 474 545 31,600 900 Climbing FlightAware
09:24PM -22.7770 -48.3900 310° West 469 540 32,000 240 Climbing FlightAware
09:25PM -22.7100 -48.4770 310° West 466 536 32,000  Level FlightAware
09:26PM -22.6420 -48.5630 311° West 468 539 32,000  Level FlightAware
09:27PM -22.5780 -48.6450 310° West 469 540 32,000  Level FlightAware
09:28PM -22.4970 -48.7480 310° West 471 542 32,000  Level FlightAware
09:28PM -22.4270 -48.8370 310° West 472 543 32,000  Level FlightAware
09:29PM -22.3490 -48.9370 310° West 474 545 32,000  Level FlightAware
09:30PM -22.2870 -49.0150 311° West 475 547 32,000  Level FlightAware
09:31PM -22.2240 -49.0950 310° West 476 548 32,000  Level FlightAware
09:32PM -22.1580 -49.1790 310° West 477 549 32,000  Level FlightAware
09:32PM -22.0860 -49.2690 311° West 478 550 32,000  Level FlightAware
09:33PM -22.0410 -49.3260 310° West 478 550 32,000  Level FlightAware
09:33PM -21.9930 -49.3870 310° West 479 551 32,000  Level FlightAware
09:34PM -21.9440 -49.4480 311° West 479 551 32,000  Level FlightAware
09:35PM -21.9010 -49.5020 311° West 479 551 32,000  Level FlightAware
09:35PM -21.8530 -49.5630 310° West 479 551 32,000  Level FlightAware
09:36PM -21.7730 -49.6630 311° West 481 554 32,000  Level FlightAware
09:37PM -21.7280 -49.7190 311° West 482 555 32,000  Level FlightAware
09:37PM -21.6750 -49.7860 310° West 482 555 32,000  Level FlightAware
09:38PM -21.6040 -49.8740 311° West 483 556 32,000  Level FlightAware
09:39PM -21.5520 -49.9390 311° West 482 555 32,000  Level FlightAware
09:39PM -21.5060 -49.9970 310° West 482 555 32,000  Level FlightAware
09:40PM -21.4570 -50.0570 311° West 481 554 32,000  Level FlightAware
09:41PM -21.3730 -50.1530 313° West 477 549 32,000  Level FlightAware
09:41PM -21.3220 -50.2090 314° West 475 547 32,000  Level FlightAware
09:42PM -21.2730 -50.2630 314° West 473 544 32,000  Level FlightAware
09:43PM -21.1880 -50.3580 314° West 471 542 32,000  Level FlightAware
09:43PM -21.1170 -50.4360 314° West 469 540 32,000  Level FlightAware
09:44PM -21.0340 -50.5280 314° West 465 535 32,000  Level FlightAware
09:45PM -20.9730 -50.5960 314° West 465 535 32,000  Level FlightAware
09:46PM -20.8940 -50.7160 305° West 457 526 32,000  Level FlightAware
09:47PM -20.8730 -50.7870 288° West 458 527 32,000  Level FlightAware
09:47PM -20.8420 -50.8750 291° West 460 529 32,000  Level FlightAware
09:48PM -20.8180 -50.9330 294° West 459 528 32,000  Level FlightAware
09:49PM -20.7650 -51.0510 296° West 461 531 32,000  Level FlightAware
09:50PM -20.7110 -51.1640 297° West 467 537 32,000  Level FlightAware
09:51PM -20.6310 -51.2660 310° West 471 542 32,000  Level FlightAware
09:52PM -20.5430 -51.3560 316° Northwest 470 541 32,000  Level FlightAware
09:52PM -20.4740 -51.4270 316° Northwest 475 547 32,000  Level FlightAware
09:53PM -20.3820 -51.5170 317° Northwest 481 554 32,000  Level FlightAware
09:54PM -20.3070 -51.5900 318° Northwest 484 557 32,000  Level FlightAware
09:55PM -20.2340 -51.6600 318° Northwest 484 557 32,000  Level FlightAware
09:56PM -20.1660 -51.7250 318° Northwest 484 557 32,000  Level FlightAware
09:56PM -20.1330 -51.7570 318° Northwest 484 557 32,000  Level FlightAware
09:57PM -20.0650 -51.8220 318° Northwest 484 557 32,000  Level FlightAware
09:58PM -19.9450 -51.9400 317° Northwest 491 565 32,000  Level FlightAware
09:59PM -19.8580 -52.0270 317° Northwest 491 565 32,000  Level FlightAware
09:59PM -19.7810 -52.0980 319° Northwest 487 560 32,000  Level FlightAware
10:00PM -19.7090 -52.1700 317° Northwest 487 560 32,000  Level FlightAware
10:01PM -19.6410 -52.2370 317° Northwest 487 560 32,000  Level FlightAware
10:02PM -19.5290 -52.3410 319° Northwest 481 554 32,000  Level FlightAware
10:03PM -19.4580 -52.4100 317° Northwest 480 552 32,000  Level FlightAware
10:03PM -19.4080 -52.4590 317° Northwest 480 552 32,000  Level FlightAware
10:04PM -19.3250 -52.5410 317° Northwest 480 552 32,000  Level FlightAware
10:05PM -19.2590 -52.6060 317° Northwest 480 552 32,000  Level FlightAware
10:06PM -19.1930 -52.6720 317° Northwest 480 552 32,000 780 Level FlightAware
10:06PM -19.0630 -52.7850 321° Northwest 473 544 33,200 1,260 Climbing FlightAware
10:07PM -19.0250 -52.8200 319° Northwest 477 549 33,400 120 Climbing FlightAware
10:08PM -18.9550 -52.8890 317° Northwest 477 549 33,400 360 Level FlightAware
10:08PM -18.8710 -52.9670 319° Northwest 480 552 34,000 360 Climbing FlightAware
10:09PM -18.8030 -53.0340 317° Northwest 480 552 34,000  Level FlightAware
10:10PM -18.7520 -53.0840 317° Northwest 480 552 34,000  Level FlightAware
10:11PM -18.6700 -53.1640 317° Northwest 480 552 34,000  Level FlightAware
10:12PM -18.5880 -53.2460 317° Northwest 480 552 34,000  Level FlightAware
10:13PM -18.5050 -53.3270 317° Northwest 480 552 34,000  Level FlightAware
10:13PM -18.3760 -53.4340 322° Northwest 481 554 34,000  Level FlightAware
10:14PM -18.3070 -53.4990 318° Northwest 481 554 34,000  Level FlightAware
10:15PM -18.2390 -53.5630 318° Northwest 481 554 34,000  Level FlightAware
10:16PM -18.1870 -53.6130 318° Northwest 481 554 34,000  Level FlightAware
10:16PM -18.1200 -53.6760 318° Northwest 481 554 34,000  Level FlightAware
10:17PM -18.0510 -53.7420 318° Northwest 481 554 34,000  Level FlightAware
10:18PM -17.9180 -53.8620 319° Northwest 492 566 34,000  Level FlightAware
10:19PM -17.8270 -53.9460 319° Northwest 494 568 34,000  Level FlightAware
10:20PM -17.7440 -54.0250 318° Northwest 495 570 34,000  Level FlightAware
10:21PM -17.6740 -54.0910 318° Northwest 495 570 34,000  Level FlightAware
10:22PM -17.5870 -54.1730 318° Northwest 495 570 34,000  Level FlightAware
10:22PM -17.5510 -54.2070 318° Northwest 495 570 34,000  Level FlightAware
10:23PM -17.4990 -54.2560 318° Northwest 495 570 34,000  Level FlightAware
10:24PM -17.4120 -54.3380 318° Northwest 495 570 34,000  Level FlightAware
10:24PM -17.3600 -54.3870 318° Northwest 495 570 34,000  Level FlightAware
10:25PM -17.2730 -54.4690 318° Northwest 495 570 34,000  Level FlightAware
10:26PM -17.2210 -54.5180 318° Northwest 495 570 34,000  Level FlightAware
10:26PM -17.1690 -54.5670 318° Northwest 495 570 34,000  Level FlightAware
10:27PM -17.1330 -54.6010 318° Northwest 495 570 34,000  Level FlightAware
10:28PM -17.0460 -54.6830 318° Northwest 495 570 34,000  Level FlightAware
10:29PM -16.9580 -54.7660 318° Northwest 495 570 34,000  Level FlightAware
10:31PM -16.7920 -54.9118 320° Northwest  Level Estimated
10:32PM -16.6970 -54.9950 320° Northwest  Level Estimated
10:33PM -16.6021 -55.0782 320° Northwest  Level Estimated
10:34PM -16.5070 -55.1612 320° Northwest  Level Estimated
10:35PM -16.4120 -55.2442 320° Northwest  Level Estimated
10:36PM -16.3169 -55.3271 320° Northwest  Level Estimated
10:37PM -16.2218 -55.4099 320° Northwest  Level Estimated
10:38PM -16.1267 -55.4926 320° Northwest  Level Estimated
10:38PM -15.9970 -55.7720 320° Northwest 473 544 34,000  Level FlightAware
10:38PM -15.9210 -55.8480 316° Northwest 472 543 34,000  Level FlightAware
10:39PM -15.8290 -55.9390 316° Northwest 472 543 34,000  Level FlightAware
10:40PM -15.7500 -56.0180 316° Northwest 471 542 34,000  Level FlightAware
10:41PM -15.7030 -56.0650 316° Northwest 471 542 34,000  Level FlightAware
10:41PM -15.6540 -56.1140 316° Northwest 472 543 34,000  Level FlightAware
10:42PM -15.5500 -56.2070 319° Northwest 475 547 34,000  Level FlightAware
10:43PM -15.4650 -56.2820 320° Northwest 475 547 34,000  Level FlightAware
10:44PM -15.3840 -56.3550 319° Northwest 474 545 34,000  Level FlightAware
10:45PM -15.3080 -56.4230 319° Northwest 476 548 34,000  Level FlightAware
10:46PM -15.2040 -56.5160 319° Northwest 477 549 34,000  Level FlightAware
10:47PM -15.1160 -56.5950 319° Northwest 478 550 34,000  Level FlightAware
10:47PM -15.0320 -56.6690 320° Northwest 479 551 34,000  Level FlightAware
10:48PM -14.9820 -56.7140 319° Northwest 479 551 34,000  Level FlightAware
10:48PM -14.9290 -56.7610 319° Northwest 479 551 34,000  Level FlightAware
10:49PM -14.8530 -56.8280 320° Northwest 479 551 34,000  Level FlightAware
10:50PM -14.7450 -56.9250 319° Northwest 479 551 34,000  Level FlightAware
10:51PM -14.6750 -56.9870 319° Northwest 479 551 34,000  Level FlightAware
10:52PM -14.6410 -57.0180 319° Northwest 479 551 34,000  Level FlightAware
10:52PM -14.5870 -57.0670 319° Northwest 479 551 34,000  Level FlightAware
10:53PM -14.5360 -57.1130 319° Northwest 479 551 34,000  Level FlightAware
10:54PM -14.4490 -57.1900 319° Northwest 479 551 34,000  Level FlightAware
10:54PM -14.4150 -57.2210 319° Northwest 479 551 34,000  Level FlightAware
10:55PM -14.3470 -57.2820 319° Northwest 479 551 34,000  Level FlightAware
10:56PM -14.2610 -57.3590 319° Northwest 479 551 34,000  Level FlightAware
10:57PM -14.2090 -57.4060 319° Northwest 479 551 34,000  Level FlightAware
10:57PM -14.1750 -57.4370 319° Northwest 479 551 34,000  Level FlightAware
10:58PM -14.0890 -57.5130 319° Northwest 479 551 34,000  Level FlightAware
10:59PM -14.0210 -57.5740 319° Northwest 479 551 34,000  Level FlightAware
11:00PM -13.9530 -57.6350 319° Northwest 479 551 34,000  Level FlightAware
11:02PM -13.7752 -57.7841 321° Northwest  Level Estimated
11:03PM -13.6790 -57.8646 321° Northwest  Level Estimated
11:04PM -13.5829 -57.9451 321° Northwest  Level Estimated
11:05PM -13.4866 -58.0255 321° Northwest  Level Estimated
11:06PM -13.3904 -58.1058 321° Northwest  Level Estimated
11:07PM -13.2942 -58.1860 321° Northwest  Level Estimated
11:08PM -13.1979 -58.2662 321° Northwest  Level Estimated
11:09PM -13.1016 -58.3463 321° Northwest  Level Estimated
11:10PM -13.0052 -58.4264 321° Northwest  Level Estimated
11:11PM -12.9089 -58.5064 321° Northwest  Level Estimated
11:12PM -12.8125 -58.5863 321° Northwest  Level Estimated
11:13PM -12.7161 -58.6662 321° Northwest  Level Estimated
11:14PM -12.6197 -58.7460 321° Northwest  Level Estimated
11:15PM -12.5232 -58.8257 321° Northwest  Level Estimated
11:16PM -12.4267 -58.9054 321° Northwest  Level Estimated
11:17PM -12.3302 -58.9851 321° Northwest  Level Estimated
11:18PM -12.2337 -59.0647 321° Northwest  Level Estimated
11:19PM -12.1372 -59.1442 321° Northwest  Level Estimated
11:20PM -12.0406 -59.2236 321° Northwest  Level Estimated
11:21PM -11.9440 -59.3030 321° Northwest  Level Estimated
11:22PM -11.8474 -59.3824 321° Northwest  Level Estimated
11:23PM -11.7508 -59.4617 321° Northwest  Level Estimated
11:24PM -11.6541 -59.5409 321° Northwest  Level Estimated
11:25PM -11.5574 -59.6201 321° Northwest  Level Estimated
11:26PM -11.4607 -59.6992 321° Northwest  Level Estimated
11:27PM -11.3640 -59.7783 321° Northwest  Level Estimated
11:28PM -11.2673 -59.8573 321° Northwest  Level Estimated
11:29PM -11.1705 -59.9363 321° Northwest  Level Estimated
11:30PM -11.0737 -60.0152 321° Northwest  Level Estimated
11:31PM -10.9769 -60.0941 321° Northwest  Level Estimated
11:32PM -10.8801 -60.1729 321° Northwest  Level Estimated
11:33PM -10.7833 -60.2516 321° Northwest  Level Estimated
11:34PM -10.6864 -60.3303 321° Northwest  Level Estimated
11:35PM -10.5895 -60.4090 321° Northwest  Level Estimated
11:36PM -10.4926 -60.4876 321° Northwest  Level Estimated
11:37PM -10.3957 -60.5662 321° Northwest  Level Estimated
11:38PM -10.2988 -60.6447 321° Northwest  Level Estimated
11:39PM -10.2018 -60.7231 321° Northwest  Level Estimated
11:40PM -10.1048 -60.8015 321° Northwest  Level Estimated
11:41PM -10.0077 -60.8800 321° Northwest  Level Estimated
11:42PM -9.9105 -60.9585 322° Northwest  Level Estimated
11:43PM -9.8133 -61.0369 322° Northwest  Level Estimated
11:44PM -9.7161 -61.1153 322° Northwest  Level Estimated
11:45PM -9.6188 -61.1936 322° Northwest  Level Estimated
11:46PM -9.5217 -61.2717 322° Northwest  Level Estimated
11:47PM -9.4246 -61.3498 322° Northwest  Level Estimated
11:48PM -9.3275 -61.4279 322° Northwest  Level Estimated
11:49PM -9.2304 -61.5059 322° Northwest  Level Estimated
11:50PM -9.1332 -61.5838 322° Northwest  Level Estimated
11:51PM -9.0360 -61.6617 322° Northwest  Level Estimated
11:52PM -8.9389 -61.7396 322° Northwest  Level Estimated
11:53PM -8.8417 -61.8175 322° Northwest  Level Estimated
11:54PM -8.7444 -61.8952 322° Northwest  Level Estimated
11:55PM -8.6472 -61.9730 322° Northwest  Level Estimated
11:56PM -8.5499 -62.0507 322° Northwest  Level Estimated
11:57PM -8.4527 -62.1284 322° Northwest  Level Estimated
11:58PM -8.3554 -62.2060 322° Northwest  Level Estimated
11:59PM -8.2581 -62.2836 322° Northwest  Level Estimated
12:00AM -8.1608 -62.3612 322° Northwest  Level Estimated
12:01AM -8.0634 -62.4387 322° Northwest  Level Estimated
12:02AM -7.9661 -62.5162 322° Northwest  Level Estimated
12:03AM -7.8686 -62.5937 322° Northwest  Level Estimated
12:04AM -7.7710 -62.6713 322° Northwest  Level Estimated
12:05AM -7.6735 -62.7488 322° Northwest  Level Estimated
12:06AM -7.5759 -62.8263 322° Northwest  Level Estimated
12:07AM -7.4783 -62.9037 322° Northwest  Level Estimated
12:08AM -7.3807 -62.9811 322° Northwest  Level Estimated
12:09AM -7.2831 -63.0585 322° Northwest  Level Estimated
12:10AM -7.1855 -63.1358 322° Northwest  Level Estimated
12:11AM -7.0879 -63.2131 322° Northwest  Level Estimated
12:12AM -6.9902 -63.2904 322° Northwest  Level Estimated
12:13AM -6.8926 -63.3676 322° Northwest  Level Estimated
12:14AM -6.7949 -63.4448 322° Northwest  Level Estimated
12:15AM -6.6972 -63.5220 322° Northwest  Level Estimated
12:16AM -6.5995 -63.5991 322° Northwest  Level Estimated
12:17AM -6.5018 -63.6762 322° Northwest  Level Estimated
12:18AM -6.4041 -63.7533 322° Northwest  Level Estimated
12:19AM -6.3064 -63.8304 322° Northwest  Level Estimated
12:20AM -6.2086 -63.9074 322° Northwest  Level Estimated
12:21AM -6.1109 -63.9844 322° Northwest  Level Estimated
12:22AM -6.0131 -64.0613 322° Northwest  Level Estimated
12:23AM -5.9153 -64.1383 322° Northwest  Level Estimated
12:24AM -5.8175 -64.2152 322° Northwest  Level Estimated
12:25AM -5.7197 -64.2921 322° Northwest  Level Estimated
12:26AM -5.6219 -64.3689 322° Northwest  Level Estimated
12:27AM -5.5241 -64.4458 322° Northwest  Level Estimated
12:28AM -5.4263 -64.5226 322° Northwest  Level Estimated
12:29AM -5.3284 -64.5993 322° Northwest  Level Estimated
12:30AM -5.2306 -64.6761 322° Northwest  Level Estimated
12:31AM -5.1327 -64.7528 322° Northwest  Level Estimated
12:32AM -5.0349 -64.8296 322° Northwest  Level Estimated
12:33AM -4.9370 -64.9062 322° Northwest  Level Estimated
12:34AM -4.8391 -64.9829 322° Northwest  Level Estimated
12:35AM -4.7412 -65.0595 322° Northwest  Level Estimated
12:36AM -4.6433 -65.1362 322° Northwest  Level Estimated
12:37AM -4.5454 -65.2128 322° Northwest  Level Estimated
12:38AM -4.4475 -65.2893 322° Northwest  Level Estimated
12:39AM -4.3496 -65.3659 322° Northwest  Level Estimated
12:40AM -4.2516 -65.4424 322° Northwest  Level Estimated
12:41AM -4.1535 -65.5191 322° Northwest  Level Estimated
12:42AM -4.0554 -65.5957 322° Northwest  Level Estimated
12:43AM -3.9573 -65.6723 322° Northwest  Level Estimated
12:44AM -3.8592 -65.7489 322° Northwest  Level Estimated
12:45AM -3.7610 -65.8255 322° Northwest  Level Estimated
12:46AM -3.6629 -65.9021 322° Northwest  Level Estimated
12:47AM -3.5647 -65.9786 322° Northwest  Level Estimated
12:48AM -3.4666 -66.0551 322° Northwest  Level Estimated
12:49AM -3.3684 -66.1317 322° Northwest  Level Estimated
12:50AM -3.2702 -66.2082 322° Northwest  Level Estimated
12:51AM -3.1720 -66.2846 322° Northwest  Level Estimated
12:52AM -3.0739 -66.3611 322° Northwest  Level Estimated
12:53AM -2.9757 -66.4376 322° Northwest  Level Estimated
12:54AM -2.8775 -66.5140 322° Northwest  Level Estimated
12:55AM -2.7793 -66.5904 322° Northwest  Level Estimated
12:56AM -2.6811 -66.6668 322° Northwest  Level Estimated
12:57AM -2.5829 -66.7432 322° Northwest  Level Estimated
12:58AM -2.4847 -66.8196 322° Northwest  Level Estimated
12:59AM -2.3865 -66.8960 322° Northwest  Level Estimated
01:00AM -2.2882 -66.9724 322° Northwest  Level Estimated
01:01AM -2.1900 -67.0487 322° Northwest  Level Estimated
01:02AM -2.0918 -67.1251 322° Northwest  Level Estimated
01:03AM -1.9935 -67.2014 322° Northwest  Level Estimated
01:04AM -1.8953 -67.2777 322° Northwest  Level Estimated
01:05AM -1.7971 -67.3541 322° Northwest  Level Estimated
01:06AM -1.6988 -67.4304 322° Northwest  Level Estimated
01:07AM -1.6006 -67.5067 322° Northwest  Level Estimated
01:08AM -1.5023 -67.5830 322° Northwest  Level Estimated
01:09AM -1.4041 -67.6593 322° Northwest  Level Estimated
01:10AM -1.3058 -67.7355 322° Northwest  Level Estimated
01:11AM -1.2076 -67.8118 322° Northwest  Level Estimated
01:12AM -1.1093 -67.8881 322° Northwest  Level Estimated
01:13AM -1.0110 -67.9644 322° Northwest  Level Estimated
01:14AM -0.9128 -68.0406 322° Northwest  Level Estimated
01:15AM -0.8145 -68.1169 322° Northwest  Level Estimated
01:16AM -0.7163 -68.1931 322° Northwest  Level Estimated
01:17AM -0.6180 -68.2694 322° Northwest  Level Estimated
01:18AM -0.5197 -68.3456 322° Northwest  Level Estimated
01:19AM -0.4215 -68.4219 322° Northwest  Level Estimated
01:20AM -0.3232 -68.4981 322° Northwest  Level Estimated
01:21AM -0.2249 -68.5744 322° Northwest  Level Estimated
01:22AM -0.1267 -68.6506 322° Northwest  Level Estimated
01:23AM -0.0284 -68.7269 322° Northwest  Level Estimated
01:24AM 0.0699 -68.8031 322° Northwest  Level Estimated
01:25AM 0.1682 -68.8793 322° Northwest  Level Estimated
01:26AM 0.2664 -68.9556 322° Northwest  Level Estimated
01:27AM 0.3647 -69.0318 322° Northwest  Level Estimated
01:28AM 0.4630 -69.1080 322° Northwest  Level Estimated
01:29AM 0.5612 -69.1843 322° Northwest  Level Estimated
01:30AM 0.6595 -69.2606 322° Northwest  Level Estimated
01:31AM 0.7578 -69.3368 322° Northwest  Level Estimated
01:32AM 0.8560 -69.4131 322° Northwest  Level Estimated
01:33AM 0.9543 -69.4893 322° Northwest  Level Estimated
01:34AM 1.0526 -69.5656 322° Northwest  Level Estimated
01:35AM 1.1508 -69.6419 322° Northwest  Level Estimated
01:36AM 1.2491 -69.7181 322° Northwest  Level Estimated
01:37AM 1.3473 -69.7944 322° Northwest  Level Estimated
01:38AM 1.4456 -69.8707 322° Northwest  Level Estimated
01:39AM 1.5438 -69.9470 322° Northwest  Level Estimated
01:40AM 1.6421 -70.0233 322° Northwest  Level Estimated
01:41AM 1.7403 -70.0996 322° Northwest  Level Estimated
01:42AM 1.8386 -70.1759 322° Northwest  Level Estimated
01:43AM 1.9368 -70.2522 322° Northwest  Level Estimated
01:44AM 2.0350 -70.3286 322° Northwest  Level Estimated
01:45AM 2.1333 -70.4049 322° Northwest  Level Estimated
01:46AM 2.2315 -70.4812 322° Northwest  Level Estimated
01:47AM 2.3297 -70.5576 322° Northwest  Level Estimated
01:48AM 2.4279 -70.6340 322° Northwest  Level Estimated
01:49AM 2.5261 -70.7104 322° Northwest  Level Estimated
01:50AM 2.6244 -70.7867 322° Northwest  Level Estimated
01:51AM 2.7226 -70.8632 322° Northwest  Level Estimated
01:52AM 2.8208 -70.9396 322° Northwest  Level Estimated
01:53AM 2.9190 -71.0160 322° Northwest  Level Estimated
01:54AM 3.0171 -71.0925 322° Northwest  Level Estimated
01:55AM 3.1153 -71.1689 322° Northwest  Level Estimated
01:56AM 3.2135 -71.2454 322° Northwest  Level Estimated
01:57AM 3.3117 -71.3219 322° Northwest  Level Estimated
01:58AM 3.4098 -71.3984 322° Northwest  Level Estimated
01:59AM 3.5080 -71.4749 322° Northwest  Level Estimated
02:00AM 3.6062 -71.5514 322° Northwest  Level Estimated
02:00AM 5.0710 -72.8680 322° Northwest 480 552 36,000  Level FlightAware
02:01AM 3.7043 -71.6280 322° Northwest  Level Estimated
02:01AM 5.1190 -72.9040 323° Northwest 479 551 36,000  Level FlightAware
02:02AM 5.2190 -72.9800 323° Northwest 479 551 36,000  Level FlightAware
02:02AM 5.2760 -73.0240 322° Northwest 479 551 36,000  Level FlightAware
02:03AM 5.3670 -73.0930 323° Northwest 477 549 36,000  Level FlightAware
02:04AM 5.4800 -73.1790 323° Northwest 478 550 36,000  Level FlightAware
02:05AM 5.5300 -73.2170 323° Northwest 477 549 36,000  Level FlightAware
02:05AM 5.6290 -73.2920 323° Northwest 473 544 36,000  Level FlightAware
02:06AM 5.6730 -73.3260 322° Northwest 473 544 36,000  Level FlightAware
02:07AM 5.7780 -73.4060 323° Northwest 472 543 36,000  Level FlightAware
02:07AM 5.8370 -73.4510 323° Northwest 472 543 36,000  Level FlightAware
02:08AM 5.9080 -73.5050 323° Northwest 472 543 36,000  Level FlightAware
02:09AM 5.9600 -73.5440 323° Northwest 471 542 36,000  Level FlightAware
02:09AM 6.0140 -73.5860 322° Northwest 471 542 36,000  Level FlightAware
02:10AM 6.0840 -73.6400 323° Northwest 472 543 36,000  Level FlightAware
02:11AM 6.1650 -73.7010 323° Northwest 473 544 36,000  Level FlightAware
02:11AM 6.2280 -73.7490 323° Northwest 474 545 36,000  Level FlightAware
02:12AM 6.3260 -73.8240 323° Northwest 476 548 36,000  Level FlightAware
02:13AM 6.4360 -73.9080 323° Northwest 478 550 36,000  Level FlightAware
02:14AM 6.5290 -73.9800 322° Northwest 478 550 36,000  Level FlightAware
02:15AM 6.5800 -74.0190 323° Northwest 480 552 36,000  Level FlightAware
02:16AM 6.6930 -74.1070 322° Northwest 480 552 36,000  Level FlightAware
02:16AM 6.7290 -74.1350 322° Northwest 480 552 36,000  Level FlightAware
02:17AM 6.7840 -74.1780 322° Northwest 480 552 36,000  Level FlightAware
02:17AM 6.8370 -74.2200 322° Northwest 480 552 36,000  Level FlightAware
02:18AM 6.8730 -74.2490 321° Northwest 480 552 36,000  Level FlightAware
02:19AM 7.0590 -74.3850 324° Northwest 475 547 36,000  Level FlightAware
02:20AM 7.1620 -74.4640 323° Northwest 472 543 36,000  Level FlightAware
02:21AM 7.2670 -74.5450 323° Northwest 469 540 36,000  Level FlightAware
02:22AM 7.3200 -74.5860 323° Northwest 468 539 36,000  Level FlightAware
02:22AM 7.3880 -74.6380 323° Northwest 466 536 36,000  Level FlightAware
02:23AM 7.4710 -74.7010 323° Northwest 462 532 36,000  Level FlightAware
02:24AM 7.5710 -74.7790 322° Northwest 458 527 36,000  Level FlightAware
02:25AM 7.6380 -74.8300 323° Northwest 458 527 36,000  Level FlightAware
02:25AM 7.6970 -74.8760 322° Northwest 458 527 36,000  Level FlightAware
02:26AM 7.7440 -74.9120 323° Northwest 457 526 36,000  Level FlightAware
02:26AM 7.8100 -74.9630 323° Northwest 458 527 36,000  Level FlightAware
02:27AM 7.9000 -75.0320 323° Northwest 459 528 36,000  Level FlightAware
02:28AM 7.9620 -75.0800 323° Northwest 461 531 36,000  Level FlightAware
02:29AM 8.0630 -75.1580 323° Northwest 466 536 36,000  Level FlightAware
02:30AM 8.1860 -75.2530 323° Northwest 467 537 36,000  Level FlightAware
02:31AM 8.2350 -75.2910 322° Northwest 466 536 36,000  Level FlightAware
02:31AM 8.2950 -75.3380 322° Northwest 466 536 36,000  Level FlightAware
02:32AM 8.3750 -75.3990 323° Northwest 466 536 36,000  Level FlightAware
02:33AM 8.4580 -75.4880 313° West 457 526 36,000  Level FlightAware
02:34AM 8.5020 -75.5390 311° West 457 526 36,000  Level FlightAware
02:34AM 8.5590 -75.6050 311° West 457 526 36,000  Level FlightAware
02:35AM 8.5870 -75.6380 311° West 457 526 36,000  Level FlightAware
02:36AM 8.6430 -75.7040 311° West 457 526 36,000  Level FlightAware
02:37AM 8.7280 -75.8030 311° West 457 526 36,000 120 Level FlightAware
02:40AM 8.9957 -76.0151 322° Northwest  Level Estimated
02:40AM 8.9830 -76.1890 322° Northwest 36,000  Level FlightAware
02:43AM 9.2416 -76.3925 322° Northwest  Level Estimated
02:44AM 9.3398 -76.4699 322° Northwest  Level Estimated
02:45AM 9.4380 -76.5473 322° Northwest  Level Estimated
02:46AM 9.5361 -76.6248 322° Northwest  Level Estimated
02:47AM 9.6342 -76.7023 322° Northwest  Level Estimated
02:47AM 9.6890 -76.6980 322° Northwest 464 534 38,000  Level FlightAware
02:48AM 9.7323 -76.7799 322° Northwest  Level Estimated
02:48AM 9.7800 -76.7330 339° North 463 533 38,000  Level FlightAware
02:48AM 9.8620 -76.7640 340° North 461 531 38,000  Level FlightAware
02:49AM 9.9130 -76.7830 340° North 461 531 38,000  Level FlightAware
02:49AM 9.9870 -76.8100 340° North 463 533 38,000  Level FlightAware
02:50AM 10.0690 -76.8390 341° North 466 536 38,000  Level FlightAware
02:51AM 10.1890 -76.8820 341° North 468 539 38,000  Level FlightAware
02:52AM 10.2460 -76.9080 336° Northwest 457 526 38,000  Level FlightAware
02:52AM 10.3480 -76.9680 330° Northwest 456 525 38,000  Level FlightAware
02:53AM 10.4130 -77.0090 328° Northwest 457 526 38,000  Level FlightAware
02:53AM 10.4500 -77.0320 329° Northwest 457 526 38,000  Level FlightAware
02:54AM 10.5070 -77.0670 329° Northwest 458 527 38,000  Level FlightAware
02:54AM 10.5560 -77.0990 327° Northwest 459 528 38,000  Level FlightAware
02:55AM 10.6030 -77.1410 319° Northwest 463 533 38,000  Level FlightAware
02:56AM 10.6710 -77.2080 316° Northwest 463 533 38,000  Level FlightAware
02:57AM 10.7910 -77.3210 317° Northwest 465 535 38,000  Level FlightAware
02:58AM 10.8840 -77.4120 316° Northwest 460 529 38,000  Level FlightAware
02:58AM 10.9230 -77.4510 316° Northwest 459 528 38,000  Level FlightAware
02:59AM 10.9720 -77.4990 316° Northwest 458 527 38,000  Level FlightAware
03:00AM 11.0360 -77.5670 314° West 458 527 38,000  Level FlightAware
03:00AM 11.0820 -77.6160 314° West 458 527 38,000  Level FlightAware
03:01AM 11.1930 -77.7630 308° West 456 525 38,000  Level FlightAware
03:02AM 11.2550 -77.8380 310° West 455 524 38,000  Level FlightAware
03:03AM 11.2880 -77.8770 311° West 454 522 38,000  Level FlightAware
03:03AM 11.3340 -77.9270 313° West 461 531 38,000  Level FlightAware
03:04AM 11.4000 -77.9800 322° Northwest 456 525 38,000  Level FlightAware
03:04AM 11.4680 -78.0360 321° Northwest 457 526 38,000  Level FlightAware
03:05AM 11.5140 -78.0750 320° Northwest 457 526 38,000  Level FlightAware
03:06AM 11.5800 -78.1310 320° Northwest 457 526 38,000  Level FlightAware
03:06AM 11.6300 -78.1740 320° Northwest 457 526 38,000  Level FlightAware
03:07AM 11.6800 -78.2160 321° Northwest 457 526 38,000  Level FlightAware
03:08AM 11.7290 -78.2590 319° Northwest 457 526 38,000  Level FlightAware
03:08AM 11.7630 -78.2880 320° Northwest 457 526 38,000  Level FlightAware
03:09AM 11.8460 -78.3590 320° Northwest 457 526 38,000  Level FlightAware
03:10AM 11.8960 -78.4020 320° Northwest 457 526 38,000  Level FlightAware
03:10AM 11.9620 -78.4580 320° Northwest 457 526 38,000  Level FlightAware
03:11AM 12.0420 -78.5270 320° Northwest 457 526 38,000  Level FlightAware
03:12AM 12.0910 -78.5690 320° Northwest 457 526 38,000  Level FlightAware
03:13AM 12.1410 -78.6120 320° Northwest 457 526 38,000  Level FlightAware
03:13AM 12.1900 -78.6540 320° Northwest 457 526 38,000  Level FlightAware
03:14AM 12.2410 -78.6980 320° Northwest 457 526 38,000  Level FlightAware
03:17AM 12.5032 -78.9113 322° Northwest  Level Estimated
03:18AM 12.6009 -78.9909 322° Northwest  Level Estimated
03:19AM 12.6985 -79.0706 321° Northwest  Level Estimated
03:20AM 12.7962 -79.1503 321° Northwest  Level Estimated
03:21AM 12.8938 -79.2301 321° Northwest  Level Estimated
03:22AM 12.9913 -79.3100 321° Northwest  Level Estimated
03:23AM 13.0889 -79.3899 321° Northwest  Level Estimated
03:24AM 13.1862 -79.4697 321° Northwest  Level Estimated
03:25AM 13.2836 -79.5496 321° Northwest  Level Estimated
03:26AM 13.3809 -79.6296 321° Northwest  Level Estimated
03:27AM 13.4782 -79.7096 321° Northwest  Level Estimated
03:28AM 13.5754 -79.7897 321° Northwest  Level Estimated
03:29AM 13.6727 -79.8699 321° Northwest  Level Estimated
03:30AM 13.7699 -79.9501 321° Northwest  Level Estimated
03:31AM 13.8671 -80.0304 321° Northwest  Level Estimated
03:32AM 13.9642 -80.1107 321° Northwest  Level Estimated
03:33AM 14.0613 -80.1912 321° Northwest  Level Estimated
03:34AM 14.1584 -80.2717 321° Northwest  Level Estimated
03:35AM 14.2555 -80.3522 321° Northwest  Level Estimated
03:36AM 14.3526 -80.4329 321° Northwest  Level Estimated
03:37AM 14.4496 -80.5136 321° Northwest  Level Estimated
03:38AM 14.5466 -80.5944 321° Northwest  Level Estimated
03:39AM 14.6435 -80.6752 321° Northwest  Level Estimated
03:40AM 14.7405 -80.7561 321° Northwest  Level Estimated
03:41AM 14.8374 -80.8371 321° Northwest  Level Estimated
03:42AM 14.9343 -80.9182 321° Northwest  Level Estimated
03:43AM 15.0311 -80.9993 321° Northwest  Level Estimated
03:44AM 15.1279 -81.0806 321° Northwest  Level Estimated
03:45AM 15.2247 -81.1618 321° Northwest  Level Estimated
03:46AM 15.3215 -81.2432 321° Northwest  Level Estimated
03:47AM 15.4183 -81.3246 321° Northwest  Level Estimated
03:48AM 15.5150 -81.4061 321° Northwest  Level Estimated
03:49AM 15.6116 -81.4877 321° Northwest  Level Estimated
03:50AM 15.7083 -81.5694 321° Northwest  Level Estimated
03:51AM 15.8052 -81.6514 321° Northwest  Level Estimated
03:52AM 15.9022 -81.7335 321° Northwest  Level Estimated
03:53AM 15.9991 -81.8157 321° Northwest  Level Estimated
03:54AM 16.0959 -81.8980 321° Northwest  Level Estimated
03:55AM 16.1927 -81.9803 321° Northwest  Level Estimated
03:56AM 16.2895 -82.0628 321° Northwest  Level Estimated
03:57AM 16.3863 -82.1453 321° Northwest  Level Estimated
03:58AM 16.4830 -82.2279 321° Northwest  Level Estimated
03:59AM 16.5797 -82.3105 321° Northwest  Level Estimated
04:00AM 16.6764 -82.3933 321° Northwest  Level Estimated
04:01AM 16.7731 -82.4761 321° Northwest  Level Estimated
04:02AM 16.8696 -82.5590 321° Northwest  Level Estimated
04:03AM 16.9662 -82.6420 321° Northwest  Level Estimated
04:04AM 17.0628 -82.7251 321° Northwest  Level Estimated
04:05AM 17.1593 -82.8083 321° Northwest  Level Estimated
04:06AM 17.2557 -82.8916 321° Northwest  Level Estimated
04:07AM 17.3522 -82.9749 320° Northwest  Level Estimated
04:08AM 17.4486 -83.0584 320° Northwest  Level Estimated
04:09AM 17.5449 -83.1419 320° Northwest  Level Estimated
04:10AM 17.6413 -83.2255 320° Northwest  Level Estimated
04:11AM 17.7375 -83.3092 320° Northwest  Level Estimated
04:12AM 17.8338 -83.3930 320° Northwest  Level Estimated
04:13AM 17.9300 -83.4769 320° Northwest  Level Estimated
04:14AM 18.0262 -83.5609 320° Northwest  Level Estimated
04:15AM 18.1224 -83.6450 320° Northwest  Level Estimated
04:16AM 18.2185 -83.7291 320° Northwest  Level Estimated
04:17AM 18.3146 -83.8134 320° Northwest  Level Estimated
04:18AM 18.4106 -83.8977 320° Northwest  Level Estimated
04:19AM 18.5066 -83.9822 320° Northwest  Level Estimated
04:20AM 18.6026 -84.0667 320° Northwest  Level Estimated
04:20AM 18.5630 -84.5300 320° Northwest 454 522 38,000  Level FlightAware
04:21AM 18.6985 -84.1514 320° Northwest  Level Estimated
04:21AM 18.6070 -84.5710 319° Northwest 453 521 38,000  Level FlightAware
04:22AM 18.7944 -84.2361 320° Northwest  Level Estimated
04:22AM 18.6670 -84.6260 319° Northwest 452 520 38,000  Level FlightAware
04:22AM 18.7190 -84.6750 318° Northwest 452 520 38,000  Level FlightAware
04:23AM 18.7830 -84.7330 319° Northwest 454 522 38,000  Level FlightAware
04:23AM 18.8040 -84.7530 318° Northwest 454 522 38,000  Level FlightAware
04:24AM 18.8890 -84.8320 319° Northwest 454 522 38,000  Level FlightAware
04:24AM 18.9200 -84.8600 319° Northwest 453 521 38,000  Level FlightAware
04:25AM 18.9880 -84.9240 318° Northwest 453 521 38,000  Level FlightAware
04:26AM 19.1010 -85.0280 319° Northwest 453 521 38,000  Level FlightAware
04:27AM 19.1510 -85.0750 318° Northwest 452 520 38,000  Level FlightAware
04:27AM 19.2110 -85.1310 319° Northwest 452 520 38,000  Level FlightAware
04:29AM 19.3380 -85.2490 319° Northwest 452 520 38,000  Level FlightAware
04:29AM 19.3950 -85.3020 319° Northwest 452 520 38,000  Level FlightAware
04:30AM 19.4650 -85.3680 318° Northwest 453 521 38,000  Level FlightAware
04:31AM 19.5340 -85.4320 319° Northwest 453 521 38,000  Level FlightAware
04:31AM 19.6060 -85.4990 319° Northwest 454 522 38,000  Level FlightAware
04:32AM 19.6630 -85.5530 318° Northwest 454 522 38,000  Level FlightAware
04:33AM 19.7320 -85.6180 318° Northwest 454 522 38,000  Level FlightAware
04:33AM 19.7890 -85.6710 319° Northwest 455 524 38,000  Level FlightAware
04:34AM 19.8450 -85.7250 318° Northwest 455 524 38,000  Level FlightAware
04:35AM 19.9080 -85.7840 319° Northwest 456 525 38,000  Level FlightAware
04:35AM 19.9650 -85.8370 319° Northwest 456 525 38,000  Level FlightAware
04:36AM 20.0190 -85.8890 318° Northwest 456 525 38,000  Level FlightAware
04:36AM 20.0730 -85.9400 318° Northwest 455 524 38,000  Level FlightAware
04:37AM 20.1360 -86.0000 318° Northwest 456 525 38,000  Level FlightAware
04:38AM 20.2100 -86.0720 318° Northwest 456 525 38,000  Level FlightAware
04:39AM 20.2770 -86.1350 319° Northwest 456 525 38,000  Level FlightAware
04:39AM 20.3450 -86.2010 318° Northwest 456 525 38,000  Level FlightAware
04:40AM 20.4080 -86.2610 318° Northwest 456 525 38,000  Level FlightAware
04:41AM 20.4720 -86.3230 318° Northwest 455 524 38,000  Level FlightAware
04:41AM 20.5270 -86.3760 318° Northwest 455 524 38,000  Level FlightAware
04:42AM 20.5890 -86.4360 318° Northwest 455 524 38,000  Level FlightAware
04:43AM 20.6460 -86.4910 318° Northwest 454 522 38,000  Level FlightAware
04:44AM 20.7550 -86.5970 318° Northwest 453 521 38,000  Level FlightAware
04:44AM 20.8170 -86.6560 318° Northwest 453 521 38,000  Level FlightAware
04:45AM 20.8730 -86.7110 317° Northwest 452 520 38,000  Level FlightAware
04:46AM 20.9500 -86.7860 318° Northwest 452 520 38,000  Level FlightAware
04:46AM 21.0100 -86.8440 318° Northwest 451 519 38,000  Level FlightAware
04:47AM 21.0660 -86.8990 317° Northwest 450 518 38,000  Level FlightAware
04:48AM 21.1280 -86.9600 317° Northwest 449 517 38,000  Level FlightAware
04:48AM 21.1970 -87.0280 317° Northwest 448 516 38,000  Level FlightAware
04:49AM 21.2590 -87.0880 318° Northwest 445 512 38,000  Level FlightAware
04:50AM 21.3310 -87.1590 317° Northwest 444 511 38,000  Level FlightAware
04:50AM 21.3750 -87.2020 318° Northwest 443 510 38,000  Level FlightAware
04:51AM 21.4430 -87.2700 317° Northwest 442 509 38,000  Level FlightAware
04:52AM 21.5220 -87.3480 317° Northwest 442 509 38,000  Level FlightAware
04:53AM 21.5820 -87.4070 318° Northwest 442 509 38,000  Level FlightAware
04:53AM 21.6490 -87.4730 318° Northwest 442 509 38,000  Level FlightAware
04:54AM 21.7070 -87.5320 317° Northwest 442 509 38,000  Level FlightAware
04:55AM 21.7810 -87.6050 318° Northwest 442 509 38,000  Level FlightAware
04:56AM 21.8410 -87.6640 318° Northwest 441 507 38,000  Level FlightAware
04:56AM 21.8980 -87.7210 317° Northwest 441 507 38,000  Level FlightAware
04:57AM 22.0000 -87.8240 317° Northwest 442 509 38,000  Level FlightAware
04:58AM 22.0650 -87.8800 321° Northwest 440 506 38,000  Level FlightAware
04:59AM 22.1200 -87.9220 325° Northwest 441 507 38,000  Level FlightAware
04:59AM 22.1920 -87.9780 324° Northwest 442 509 38,000  Level FlightAware
05:00AM 22.2430 -88.0200 323° Northwest 442 509 38,000  Level FlightAware
05:01AM 22.3140 -88.0770 323° Northwest 441 507 38,000  Level FlightAware
05:01AM 22.3690 -88.1220 323° Northwest 441 507 38,000  Level FlightAware
05:02AM 22.4250 -88.1670 323° Northwest 442 509 38,000  Level FlightAware
05:02AM 22.4650 -88.1990 324° Northwest 442 509 38,000  Level FlightAware
05:03AM 22.5960 -88.3060 323° Northwest 444 511 38,000  Level FlightAware
05:04AM 22.6700 -88.3650 324° Northwest 445 512 38,000  Level FlightAware
05:05AM 22.7230 -88.4000 329° Northwest 443 510 38,000  Level FlightAware
05:05AM 22.8010 -88.4270 342° North 445 512 38,000  Level FlightAware
05:06AM 22.8470 -88.4410 344° North 445 512 38,000  Level FlightAware
05:07AM 23.0170 -88.4890 345° North 446 513 38,000  Level FlightAware
05:08AM 23.1080 -88.5150 345° North 447 514 38,000  Level FlightAware
05:08AM 23.1790 -88.5350 345° North 447 514 38,000  Level FlightAware
05:09AM 23.2480 -88.5550 345° North 448 516 38,000  Level FlightAware
05:10AM 23.3050 -88.5710 346° North 448 516 38,000  Level FlightAware
05:10AM 23.3970 -88.5980 345° North 448 516 38,000  Level FlightAware
05:11AM 23.5150 -88.6320 345° North 449 517 38,000  Level FlightAware
05:12AM 23.5650 -88.6460 346° North 448 516 38,000  Level FlightAware
05:12AM 23.6420 -88.6680 345° North 447 514 38,000  Level FlightAware
05:13AM 23.6870 -88.6810 345° North 446 513 38,000  Level FlightAware
05:14AM 23.7240 -88.6920 345° North 444 511 38,000  Level FlightAware
05:14AM 23.8090 -88.7170 345° North 444 511 38,000  Level FlightAware
05:15AM 23.8990 -88.7430 345° North 440 506 38,000  Level FlightAware
05:16AM 23.9840 -88.7670 346° North 437 503 38,000  Level FlightAware
05:16AM 24.0270 -88.7800 345° North 437 503 38,000  Level FlightAware
05:17AM 24.0880 -88.7980 345° North 437 503 38,000  Level FlightAware
05:18AM 24.1910 -88.8280 345° North 436 502 38,000  Level FlightAware
05:18AM 24.2540 -88.8460 345° North 437 503 38,000  Level FlightAware
05:19AM 24.3370 -88.8700 345° North 437 503 38,000  Level FlightAware
05:20AM 24.4180 -88.8940 345° North 437 503 38,000  Level FlightAware
05:20AM 24.4780 -88.9120 345° North 437 503 38,000  Level FlightAware
05:21AM 24.5570 -88.9350 345° North 437 503 38,000  Level FlightAware
05:22AM 24.6170 -88.9530 345° North 437 503 38,000  Level FlightAware
05:23AM 24.7400 -88.9890 345° North 437 503 38,000  Level FlightAware
05:26AM 24.9619 -89.2397 314° West  Level Estimated
05:27AM 25.0493 -89.3389 314° West  Level Estimated
05:28AM 25.1367 -89.4383 314° West  Level Estimated
05:29AM 25.2240 -89.5378 314° West  Level Estimated
05:30AM 25.3113 -89.6374 314° West  Level Estimated
05:31AM 25.3985 -89.7372 314° West  Level Estimated
05:32AM 25.4856 -89.8372 314° West  Level Estimated
05:33AM 25.5727 -89.9372 314° West  Level Estimated
05:34AM 25.6597 -90.0375 314° West  Level Estimated
05:35AM 25.7466 -90.1378 314° West  Level Estimated
05:36AM 25.8334 -90.2383 314° West  Level Estimated
05:37AM 25.9202 -90.3390 314° West  Level Estimated
05:37AM 26.5114 -89.5242 314° West 443 510 38,000  Level Houston Center
05:38AM 26.0069 -90.4398 314° West  Level Estimated
05:38AM 26.6311 -89.5617 344° North 446 513 37,900  Level Houston Center
05:39AM 26.0936 -90.5408 314° West  Level Estimated
05:39AM 26.7411 -89.6200 335° Northwest 437 503 37,900  Level Houston Center
05:40AM 26.1801 -90.6419 314° West  Level Estimated
05:40AM 26.8467 -89.6900 329° Northwest 438 504 37,900  Level Houston Center
05:41AM 26.2666 -90.7431 314° West  Level Estimated
05:41AM 26.9519 -89.7597 329° Northwest 437 503 38,000  Level Houston Center
05:42AM 26.3531 -90.8445 314° West  Level Estimated
05:42AM 27.0544 -89.8403 325° Northwest 439 505 38,000  Level Houston Center
05:43AM 27.1561 -89.9175 326° Northwest 440 506 38,000 -60 Level Houston Center
05:44AM 27.2617 -89.9914 328° Northwest 442 509 37,900 -60 Descending Houston Center
05:45AM 27.3661 -90.0692 327° Northwest 446 513 37,900  Level Houston Center
05:46AM 27.4633 -90.1506 323° Northwest 440 506 38,000  Climbing Houston Center
05:47AM 27.5508 -90.2511 314° West 446 513 38,000 -60 Level Houston Center
05:48AM 27.6383 -90.3475 316° Northwest 445 512 37,900  Descending Houston Center
05:49AM 27.7186 -90.4444 313° West 437 503 38,000  Climbing Houston Center
05:50AM 27.7811 -90.5558 302° West 427 491 38,000  Level Houston Center
05:51AM 27.8422 -90.6714 301° West 424 488 38,000  Level Houston Center
05:56AM 28.1717 -91.3101 301° West 432 497 38,000  Level FlightAware ADS-B
06:00AM 28.4239 -91.8055 300° West 405 466 38,000  Level FlightAware ADS-B
06:01AM 28.4518 -91.8608 300° West 400 460 38,000  Level FlightAware ADS-B
06:01AM 28.4794 -91.9155 300° West 397 457 38,000  Level FlightAware ADS-B
06:02AM 28.5071 -91.9702 300° West 395 455 38,000  Level FlightAware ADS-B
06:02AM 28.5352 -92.0259 300° West 394 453 38,000  Level FlightAware ADS-B
06:03AM 28.5626 -92.0805 300° West 395 455 38,000  Level FlightAware ADS-B
06:03AM 28.5899 -92.1347 300° West 397 457 38,000  Level FlightAware ADS-B
06:04AM 28.6173 -92.1894 300° West 399 459 38,000  Level FlightAware ADS-B
06:04AM 28.6452 -92.2450 300° West 402 463 38,000  Level FlightAware ADS-B
06:05AM 28.6734 -92.3013 300° West 405 466 38,000  Level FlightAware ADS-B
06:05AM 28.7018 -92.3582 300° West 408 470 38,000  Level FlightAware ADS-B
06:06AM 28.7306 -92.4160 300° West 409 471 38,000  Level FlightAware ADS-B
06:06AM 28.7595 -92.4738 300° West 411 473 38,000  Level FlightAware ADS-B
06:07AM 28.7879 -92.5309 300° West 412 474 38,000  Level FlightAware ADS-B
06:07AM 28.8165 -92.5883 300° West 412 474 38,000  Level FlightAware ADS-B
06:08AM 28.8449 -92.6456 300° West 412 474 38,000  Level FlightAware ADS-B
06:08AM 28.8730 -92.7021 300° West 411 473 38,000  Level FlightAware ADS-B
06:09AM 28.9010 -92.7588 299° West 411 473 38,000  Level FlightAware ADS-B
06:09AM 28.9294 -92.8164 299° West 409 471 38,000  Level FlightAware ADS-B
06:10AM 28.9595 -92.8775 299° West 408 470 38,000  Level FlightAware ADS-B
06:10AM 28.9872 -92.9337 299° West 407 468 38,000  Level FlightAware ADS-B
06:11AM 29.0156 -92.9915 299° West 406 467 38,000  Level FlightAware ADS-B
06:11AM 29.0207 -93.0017 300° West 407 468 38,000  Level FlightAware ADS-B
06:12AM 29.0432 -93.0475 299° West 406 467 38,000  Level FlightAware ADS-B
06:12AM 29.0497 -93.0608 299° West 406 467 38,000  Level FlightAware ADS-B
06:12AM 29.0712 -93.1047 299° West 406 467 38,000  Level FlightAware ADS-B
06:12AM 29.0747 -93.1118 300° West 406 467 38,000  Level FlightAware ADS-B
06:13AM 29.0991 -93.1616 299° West 405 466 38,000  Level FlightAware ADS-B
06:13AM 29.1030 -93.1696 299° West 405 466 38,000  Level FlightAware ADS-B
06:13AM 29.1269 -93.2184 299° West 405 466 38,000  Level FlightAware ADS-B
06:13AM 29.1336 -93.2321 299° West 405 466 38,000  Level FlightAware ADS-B
06:14AM 29.1549 -93.2757 299° West 405 466 38,000  Level FlightAware ADS-B
06:14AM 29.1695 -93.3055 299° West 404 465 38,000  Level FlightAware ADS-B
06:14AM 29.1828 -93.3329 299° West 404 465 38,000  Level FlightAware ADS-B
06:14AM 29.1977 -93.3634 299° West 403 464 38,000  Level FlightAware ADS-B
06:15AM 29.2102 -93.3890 299° West 402 463 38,000  Level FlightAware ADS-B
06:15AM 29.2325 -93.4349 299° West 402 463 38,000  Level FlightAware ADS-B
06:15AM 29.2376 -93.4452 299° West 401 461 38,000  Level FlightAware ADS-B
06:16AM 29.2646 -93.5010 299° West 401 461 38,000  Level FlightAware ADS-B
06:16AM 29.2646 -93.5010 319° Northwest 401 461 38,000  Level FlightAware ADS-B
06:16AM 29.2919 -93.5571 299° West 400 460 38,000 -180 Level FlightAware ADS-B
06:16AM 29.3030 -93.5802 299° West 399 459 37,900 -840 Descending FlightAware ADS-B
06:17AM 29.3188 -93.6127 299° West 393 452 37,600 -1,680 Descending FlightAware ADS-B
06:17AM 29.3325 -93.6409 299° West 388 447 37,000 -2,580 Descending FlightAware ADS-B
06:17AM 29.3471 -93.6713 299° West 391 450 36,200 -2,940 Descending FlightAware ADS-B
06:17AM 29.3664 -93.7111 299° West 395 455 35,100 -2,940 Descending FlightAware ADS-B
06:18AM 29.3742 -93.7274 299° West 396 456 34,700 -3,240 Descending FlightAware ADS-B
06:18AM 29.3935 -93.7674 299° West 401 461 33,500 -3,420 Descending FlightAware ADS-B
06:18AM 29.4014 -93.7838 299° West 404 465 33,000 -3,120 Descending FlightAware ADS-B
06:18AM 29.4212 -93.8251 299° West 408 470 31,900 -3,240 Descending FlightAware ADS-B
06:19AM 29.4289 -93.8410 299° West 408 470 31,400 -3,420 Descending FlightAware ADS-B
06:19AM 29.4463 -93.8771 299° West 411 473 30,200 -3,420 Descending FlightAware ADS-B
06:19AM 29.4565 -93.8982 299° West 412 474 29,700 -3,480 Descending FlightAware ADS-B
06:20AM 29.4843 -93.9559 299° West 415 478 27,900 -3,480 Descending FlightAware ADS-B
06:20AM 29.5121 -94.0136 299° West 414 476 26,200 -3,420 Descending FlightAware ADS-B
06:21AM 29.5392 -94.0704 299° West 410 472 24,500 -3,540 Descending FlightAware ADS-B
06:21AM 29.5668 -94.1282 299° West 407 468 22,700 -3,480 Descending FlightAware ADS-B
06:22AM 29.5940 -94.1848 299° West 400 460 21,000 -3,660 Descending FlightAware ADS-B
06:22AM 29.6027 -94.2032 298° West 398 458 20,400 -3,240 Descending FlightAware ADS-B
06:22AM 29.6205 -94.2405 299° West 392 451 19,400 -3,120 Descending FlightAware ADS-B
06:22AM 29.6299 -94.2603 299° West 389 448 18,800 -3,240 Descending FlightAware ADS-B
06:23AM 29.6464 -94.2950 299° West 385 443 17,800 -3,240 Descending FlightAware ADS-B
06:23AM 29.6553 -94.3138 299° West 382 440 17,200 -3,000 Descending FlightAware ADS-B
06:23AM 29.6717 -94.3483 299° West 376 433 16,300 -2,880 Descending FlightAware ADS-B
06:23AM 29.6875 -94.3815 299° West 371 427 15,300 -2,940 Descending FlightAware ADS-B
06:24AM 29.6968 -94.4011 299° West 367 422 14,800 -3,240 Descending FlightAware ADS-B
06:24AM 29.7126 -94.4348 298° West 365 420 13,700 -3,420 Descending FlightAware ADS-B
06:24AM 29.7214 -94.4529 299° West 365 420 13,100 -3,420 Descending FlightAware ADS-B
06:24AM 29.7372 -94.4866 298° West 369 425 12,000 -3,600 Descending FlightAware ADS-B
06:25AM 29.7433 -94.4994 299° West 370 426 11,500 -2,340 Descending FlightAware ADS-B
06:25AM 29.7615 -94.5373 299° West 360 414 10,800 -1,620 Descending FlightAware ADS-B
06:25AM 29.7678 -94.5505 299° West 353 406 10,700 -660 Descending FlightAware ADS-B
06:26AM 29.7902 -94.5975 299° West 320 368 10,400 -600 Descending FlightAware ADS-B
06:26AM 29.8106 -94.6402 299° West 293 337 10,100 -720 Descending FlightAware ADS-B
06:26AM 29.8203 -94.6611 298° West 282 325 9,900 -900 Descending FlightAware ADS-B
06:26AM 29.8244 -94.6700 298° West 279 321 9,800 -840 Descending FlightAware ADS-B
06:27AM 29.8293 -94.6807 298° West 275 316 9,700 -600 Descending FlightAware ADS-B
06:27AM 29.8356 -94.6941 298° West 267 307 9,600 -540 Descending FlightAware ADS-B
06:27AM 29.8364 -94.6959 298° West 267 307 9,600 -1,140 Level FlightAware ADS-B
06:27AM 29.8440 -94.7124 298° West 262 302 9,300 -1,260 Descending FlightAware ADS-B
06:27AM 29.8525 -94.7311 298° West 260 299 9,000 -1,380 Descending FlightAware ADS-B
06:28AM 29.8594 -94.7460 298° West 257 296 8,700 -1,320 Descending FlightAware ADS-B
06:28AM 29.8681 -94.7643 299° West 254 292 8,400 -1,440 Descending FlightAware ADS-B
06:28AM 29.8700 -94.7679 301° West 254 292 8,300 -1,620 Descending FlightAware ADS-B
06:28AM 29.8766 -94.7821 298° West 255 293 8,000 -1,200 Descending FlightAware ADS-B
06:28AM 29.8806 -94.7905 299° West 252 290 7,900 -1,200 Descending FlightAware ADS-B
06:28AM 29.8854 -94.8002 300° West 250 288 7,700 -1,080 Descending FlightAware ADS-B
06:28AM 29.8900 -94.8098 299° West 249 287 7,600 -1,320 Descending FlightAware ADS-B
06:29AM 29.8933 -94.8168 299° West 249 287 7,400 -1,680 Descending FlightAware ADS-B
06:29AM 29.9016 -94.8348 298° West 248 285 7,000 -1,380 Descending FlightAware ADS-B
06:29AM 29.9038 -94.8394 299° West 247 284 7,000 -840 Level FlightAware ADS-B
06:29AM 29.9099 -94.8523 299° West 243 280 6,800 -1,620 Descending FlightAware ADS-B
06:29AM 29.9101 -94.8529 293° West 243 280 6,600 -1,140 Descending FlightAware ADS-B
06:29AM 29.9180 -94.8699 298° West 241 277 6,500 -1,020 Descending FlightAware ADS-B
06:29AM 29.9237 -94.8820 299° West 239 275 6,200 -1,380 Descending FlightAware ADS-B
06:30AM 29.9300 -94.8954 298° West 241 277 6,000 -1,080 Descending FlightAware ADS-B
06:30AM 29.9382 -94.9129 298° West 241 277 5,700 -1,320 Descending FlightAware ADS-B
06:30AM 29.9411 -94.9190 299° West 241 277 5,600 -1,200 Descending FlightAware ADS-B
06:30AM 29.9463 -94.9302 298° West 239 275 5,400 -1,200 Descending FlightAware ADS-B
06:30AM 29.9516 -94.9415 298° West 239 275 5,200 -1,200 Descending FlightAware ADS-B
06:30AM 29.9544 -94.9474 299° West 239 275 5,100 -1,140 Descending FlightAware ADS-B
06:31AM 29.9625 -94.9646 299° West 244 281 4,800 -1,320 Descending FlightAware ADS-B
06:31AM 29.9694 -94.9789 299° West 245 282 4,500 -1,500 Descending FlightAware ADS-B
06:31AM 29.9711 -94.9829 296° West 246 283 4,400 -1,020 Descending FlightAware ADS-B
06:31AM 29.9724 -94.9864 293° West 245 282 4,400 -780 Level FlightAware ADS-B
06:31AM 29.9741 -94.9915 291° West 246 283 4,300 -1,380 Descending FlightAware ADS-B
06:31AM 29.9755 -94.9972 286° West 245 282 4,200 -2,400 Descending FlightAware ADS-B
06:31AM 29.9758 -94.9992 281° West 245 282 4,100 -1,500 Descending FlightAware ADS-B
06:31AM 29.9764 -95.0021 283° West 246 283 4,100 -1,020 Level FlightAware ADS-B
06:31AM 29.9770 -95.0069 278° West 246 283 4,000 -1,740 Descending FlightAware ADS-B
06:31AM 29.9774 -95.0120 275° West 248 285 3,900 -1,800 Descending FlightAware ADS-B
06:31AM 29.9777 -95.0197 273° West 251 289 3,700 -1,440 Descending FlightAware ADS-B
06:32AM 29.9774 -95.0399 269° West 249 287 3,400 -1,080 Descending FlightAware ADS-B
06:32AM 29.9770 -95.0524 268° West 244 281 3,300 -480 Descending FlightAware ADS-B
06:32AM 29.9768 -95.0581 267° West 241 277 3,300 -600 Level FlightAware ADS-B
06:32AM 29.9768 -95.0780 270° West 233 268 3,100 -780 Descending FlightAware ADS-B
06:32AM 29.9767 -95.0773 95° East 233 268 3,100 -960 Level FlightAware ADS-B
06:32AM 29.9768 -95.0928 270° West 226 260 2,900 -960 Descending FlightAware ADS-B
06:33AM 29.9769 -95.1026 271° West 222 255 2,800 -420 Descending FlightAware ADS-B
06:33AM 29.9770 -95.1107 271° West 218 251 2,800 -300 Level FlightAware ADS-B
06:33AM 29.9774 -95.1242 272° West 205 236 2,700 -420 Descending FlightAware ADS-B
06:33AM 29.9775 -95.1273 271° West 203 234 2,700 -600 Level FlightAware ADS-B
06:33AM 29.9780 -95.1447 272° West 192 221 2,500 -960 Descending FlightAware ADS-B
06:33AM 29.9782 -95.1537 271° West 190 219 2,300 -1,020 Descending FlightAware ADS-B
06:33AM 29.9781 -95.1627 269° West 188 216 2,200 -840 Descending FlightAware ADS-B
06:34AM 29.9779 -95.1686 268° West 185 213 2,100 -1,020 Descending FlightAware ADS-B
06:34AM 29.9777 -95.1750 268° West 181 208 2,000 -840 Descending FlightAware ADS-B
06:34AM 29.9775 -95.1832 268° West 175 201 1,900 -420 Descending FlightAware ADS-B
06:34AM 29.9773 -95.2039 269° West 174 200 1,800 -240 Descending FlightAware ADS-B
06:34AM 29.9773 -95.2061 270° West 173 199 1,800 -540 Level FlightAware ADS-B
06:34AM 29.9774 -95.2132 271° West 166 191 1,700 -1,080 Descending FlightAware ADS-B
06:35AM 29.9774 -95.2211 270° West 158 182 1,500 -960 Descending FlightAware ADS-B
06:35AM 29.9775 -95.2343 271° West 153 176 1,300 -780 Descending FlightAware ADS-B
06:35AM 29.9775 -95.2468 270° West 155 178 1,100 -780 Descending FlightAware ADS-B
06:35AM 29.9776 -95.2592 271° West 156 180 900 -780 Descending FlightAware ADS-B
06:35AM 29.9776 -95.2588 91° East 156 180 900 -960 Level FlightAware ADS-B
06:36AM 29.9776 -95.2705 270° West 158 182 700 -900 Descending FlightAware ADS-B
06:36AM 29.9776 -95.2835 270° West 159 183 500 -1,080 Descending FlightAware ADS-B
06:36AM 29.9776 -95.2853 271° West 159 183 400 -780 Descending FlightAware ADS-B
06:36AM 29.9776 -95.2968 270° West 154 177 300 -480 Descending FlightAware ADS-B
06:37AM 29.9776 -95.3219 270° West 78 90 -480 Descending FlightAware ADS-B